Time;durP1;ratioP1;P1;durP2;ratioP2;P2;SDS_P1;SDS_P2;PMS_P1;PMS_P2;Temp;Humidity;BMP_temperature;BMP_pressure;BME280_temperature;BME280_humidity;BME280_pressure;Samples;Min_cycle;Max_cycle;Signal;HPM_P1;HPM_P2
2023/01/30 00:00:55;;;;;;;;;;;6.50;99.90;;;;;;5140521;27;19975;-94
2023/01/30 00:03:22;;;;;;;;;;;5.90;99.90;;;;;;5134008;27;19931;-94
2023/01/30 00:05:48;;;;;;;;;;;5.90;99.90;;;;;;5145040;27;20061;-94
2023/01/30 00:08:29;;;;;;;;;;;6.20;99.90;;;;;;5140532;27;20375;-94
2023/01/30 00:10:55;;;;;;;;;;;7.20;99.90;;;;;;5158291;27;19924;-94
2023/01/30 00:13:23;;;;;;;;;;;4.00;99.90;;;;;;5151530;27;19948;-94
2023/01/30 00:15:49;;;;;;;;;;;6.10;99.90;;;;;;5114906;27;19927;-95
2023/01/30 00:18:20;;;;;;;;;;;4.80;99.90;;;;;;5116127;27;19934;-96
2023/01/30 00:20:46;;;;;;;;;;;6.20;99.90;;;;;;5129105;27;19946;-95
2023/01/30 00:23:21;;;;;;;;;;;6.00;99.90;;;;;;5129602;27;19938;-95
2023/01/30 00:25:46;;;;;;;;;;;4.60;99.90;;;;;;5124713;28;19934;-96
2023/01/30 00:28:18;;;;;;;;;;;6.10;99.90;;;;;;5104095;27;19983;-93
2023/01/30 00:30:43;;;;;;;;;;;6.10;99.90;;;;;;5136461;27;19924;-96
2023/01/30 00:33:09;;;;;;;;;;;6.40;99.90;;;;;;5146021;27;19923;-96
2023/01/30 00:35:41;;;;;;;;;;;6.10;99.90;;;;;;5110266;27;19963;-96
2023/01/30 00:38:07;;;;;;;;;;;7.30;99.90;;;;;;5129798;27;20304;-96
2023/01/30 00:40:33;;;;;;;;;;;6.50;99.90;;;;;;5121992;27;19968;-94
2023/01/30 00:48:38;;;;;;;;;;;6.00;99.90;;;;;;5145299;27;19980;-95
2023/01/30 00:51:04;;;;;;;;;;;6.20;99.90;;;;;;5111527;27;19927;-95
2023/01/30 00:53:30;;;;;;;;;;;6.30;99.90;;;;;;5121413;27;19934;-92
2023/01/30 00:55:55;;;;;;;;;;;6.30;99.90;;;;;;5142205;27;20544;-93
2023/01/30 00:58:21;;;;;;;;;;;5.90;99.90;;;;;;5134967;27;19979;-94
2023/01/30 01:00:48;;;;;;;;;;;6.00;99.90;;;;;;5115954;27;19967;-94
2023/01/30 01:03:13;;;;;;;;;;;5.90;99.90;;;;;;5136105;27;19919;-95
2023/01/30 01:05:39;;;;;;;;;;;5.90;99.90;;;;;;5147680;27;19949;-94
2023/01/30 01:08:07;;;;;;;;;;;5.90;99.90;;;;;;5118443;27;20254;-94
2023/01/30 01:10:32;;;;;;;;;;;5.90;99.90;;;;;;5118572;27;20010;-93
2023/01/30 01:12:58;;;;;;;;;;;6.80;99.90;;;;;;5114810;27;19923;-93
2023/01/30 01:15:24;;;;;;;;;;;5.90;99.90;;;;;;5119945;27;19979;-93
2023/01/30 01:17:50;;;;;;;;;;;5.90;99.90;;;;;;5153774;27;19926;-92
2023/01/30 01:20:17;;;;;;;;;;;5.90;99.90;;;;;;5145108;27;19920;-94
2023/01/30 01:22:43;;;;;;;;;;;5.90;99.90;;;;;;5129235;27;20006;-95
2023/01/30 01:25:09;;;;;;;;;;;7.30;99.90;;;;;;5126436;27;20282;-92
2023/01/30 01:27:36;;;;;;;;;;;5.90;99.90;;;;;;5125286;27;20018;-95
2023/01/30 01:30:01;;;;;;;;;;;6.00;99.90;;;;;;5135440;27;19969;-94
2023/01/30 01:32:27;;;;;;;;;;;5.90;99.90;;;;;;5125751;27;19923;-96
2023/01/30 01:34:54;;;;;;;;;;;5.90;99.90;;;;;;5122091;27;19923;-94
2023/01/30 01:37:19;;;;;;;;;;;8.00;99.90;;;;;;5134241;27;19963;-94
2023/01/30 01:42:38;;;;;;;;;;;5.90;99.90;;;;;;5136254;27;19923;-95
2023/01/30 01:45:13;;;;;;;;;;;5.20;99.90;;;;;;5119749;27;20391;-94
2023/01/30 01:47:42;;;;;;;;;;;6.20;99.90;;;;;;5129211;27;20306;-92
2023/01/30 01:50:28;;;;;;;;;;;6.00;99.90;;;;;;5123711;27;19930;-92
2023/01/30 01:52:55;;;;;;;;;;;6.00;99.90;;;;;;5133984;27;19924;-94
2023/01/30 01:55:21;;;;;;;;;;;6.00;99.90;;;;;;5117695;27;20048;-92
2023/01/30 01:57:53;;;;;;;;;;;6.00;99.90;;;;;;5134415;27;19931;-93
2023/01/30 02:00:20;;;;;;;;;;;6.00;99.90;;;;;;5120883;27;19923;-93
2023/01/30 02:03:00;;;;;;;;;;;6.00;99.90;;;;;;5132482;27;19960;-94
2023/01/30 02:05:28;;;;;;;;;;;6.00;99.90;;;;;;5124417;27;19928;-93
2023/01/30 02:08:13;;;;;;;;;;;6.00;99.90;;;;;;5128914;27;19924;-94
2023/01/30 02:10:51;;;;;;;;;;;7.40;99.90;;;;;;5124022;27;19923;-93
2023/01/30 02:13:19;;;;;;;;;;;7.40;99.90;;;;;;5127547;27;19928;-94
2023/01/30 02:15:45;;;;;;;;;;;6.30;99.90;;;;;;5116497;27;19934;-94
2023/01/30 02:18:12;;;;;;;;;;;6.60;99.90;;;;;;5113007;27;19931;-92
2023/01/30 02:20:50;;;;;;;;;;;6.30;99.90;;;;;;5104181;28;19971;-94
2023/01/30 02:23:18;;;;;;;;;;;6.10;99.90;;;;;;5132595;27;19969;-93
2023/01/30 02:25:53;;;;;;;;;;;6.30;99.90;;;;;;5126296;28;19973;-94
2023/01/30 02:28:37;;;;;;;;;;;6.30;99.90;;;;;;5151109;27;19924;-94
2023/01/30 02:31:10;;;;;;;;;;;6.20;99.90;;;;;;5132232;28;19991;-94
2023/01/30 02:33:38;;;;;;;;;;;6.20;99.90;;;;;;5134126;28;19936;-94
2023/01/30 02:36:07;;;;;;;;;;;6.20;99.90;;;;;;5135244;27;20339;-95
2023/01/30 02:38:41;;;;;;;;;;;6.20;99.90;;;;;;5156884;27;19923;-93
2023/01/30 02:41:07;;;;;;;;;;;6.30;99.90;;;;;;5131518;27;20022;-93
2023/01/30 02:43:37;;;;;;;;;;;6.30;99.90;;;;;;5120912;27;20069;-95
2023/01/30 02:46:24;;;;;;;;;;;6.30;99.90;;;;;;5121582;27;19931;-91
2023/01/30 02:48:56;;;;;;;;;;;6.30;99.90;;;;;;5129732;27;19923;-94
2023/01/30 02:51:26;;;;;;;;;;;6.30;99.90;;;;;;5157167;27;20009;-94
2023/01/30 02:53:52;;;;;;;;;;;6.30;99.90;;;;;;5113745;28;19928;-94
2023/01/30 02:56:18;;;;;;;;;;;6.30;99.90;;;;;;5106256;28;19923;-93
2023/01/30 02:59:05;;;;;;;;;;;6.40;99.90;;;;;;5144165;27;19923;-95
2023/01/30 03:01:46;;;;;;;;;;;6.90;99.90;;;;;;5129389;27;20256;-93
2023/01/30 03:04:26;;;;;;;;;;;6.40;99.90;;;;;;5132111;27;19959;-95
2023/01/30 03:07:12;;;;;;;;;;;6.50;99.90;;;;;;5130512;27;19924;-95
2023/01/30 03:09:46;;;;;;;;;;;6.30;99.90;;;;;;5123823;28;19927;-95
2023/01/30 03:12:16;;;;;;;;;;;6.30;99.90;;;;;;5154472;27;19927;-95
2023/01/30 03:14:48;;;;;;;;;;;6.70;99.90;;;;;;5142615;27;19923;-95
2023/01/30 03:17:16;;;;;;;;;;;6.40;99.90;;;;;;5120151;28;19931;-94
2023/01/30 03:19:42;;;;;;;;;;;6.40;99.90;;;;;;5131402;27;19947;-95
2023/01/30 03:22:07;;;;;;;;;;;6.50;99.90;;;;;;5141458;27;19927;-94
2023/01/30 03:24:33;;;;;;;;;;;6.40;99.90;;;;;;5121807;27;19969;-95
2023/01/30 03:27:09;;;;;;;;;;;6.30;99.90;;;;;;5156435;27;19923;-95
2023/01/30 03:29:35;;;;;;;;;;;6.40;99.90;;;;;;5122406;27;19938;-94
2023/01/30 03:32:06;;;;;;;;;;;6.30;99.90;;;;;;5113567;27;19927;-95
2023/01/30 03:34:32;;;;;;;;;;;6.30;99.90;;;;;;5135845;27;19931;-92
2023/01/30 03:36:57;;;;;;;;;;;6.20;99.90;;;;;;5109829;28;19939;-94
2023/01/30 03:39:23;;;;;;;;;;;6.30;99.90;;;;;;5133891;27;19931;-94
2023/01/30 03:41:50;;;;;;;;;;;6.10;99.90;;;;;;5130963;27;19930;-94
2023/01/30 03:44:15;;;;;;;;;;;6.00;99.90;;;;;;5128921;27;20014;-94
2023/01/30 03:46:41;;;;;;;;;;;6.20;99.90;;;;;;5124181;27;19924;-94
2023/01/30 03:49:07;;;;;;;;;;;5.90;99.90;;;;;;5116293;27;19939;-95
2023/01/30 03:51:32;;;;;;;;;;;6.70;99.90;;;;;;5132037;27;19923;-95
2023/01/30 03:53:58;;;;;;;;;;;5.80;99.90;;;;;;5125831;27;19938;-94
2023/01/30 03:56:24;;;;;;;;;;;5.60;99.90;;;;;;5149150;27;19923;-94
2023/01/30 03:58:49;;;;;;;;;;;5.50;99.90;;;;;;5132468;27;19952;-92
2023/01/30 04:01:15;;;;;;;;;;;5.40;99.90;;;;;;5127351;27;20342;-94
2023/01/30 04:03:41;;;;;;;;;;;5.50;99.90;;;;;;5143142;27;19931;-93
2023/01/30 04:06:06;;;;;;;;;;;5.40;99.90;;;;;;5126810;27;19923;-95
2023/01/30 04:08:41;;;;;;;;;;;5.40;99.90;;;;;;5117909;27;19923;-93
2023/01/30 04:11:07;;;;;;;;;;;5.90;99.90;;;;;;5141578;27;19934;-93
2023/01/30 04:13:32;;;;;;;;;;;5.40;99.90;;;;;;5134117;27;19923;-93
2023/01/30 04:16:16;;;;;;;;;;;5.40;99.90;;;;;;5129101;27;19923;-93
2023/01/30 04:18:42;;;;;;;;;;;5.30;99.90;;;;;;5140495;27;19923;-92
2023/01/30 04:21:08;;;;;;;;;;;5.40;99.90;;;;;;5115170;27;19923;-93
2023/01/30 04:23:33;;;;;;;;;;;5.40;99.90;;;;;;5133679;27;20050;-95
2023/01/30 04:25:59;;;;;;;;;;;5.30;99.90;;;;;;5133017;27;19923;-95
2023/01/30 04:28:24;;;;;;;;;;;5.30;99.90;;;;;;5128612;27;19924;-94
2023/01/30 04:30:51;;;;;;;;;;;5.00;99.90;;;;;;5127407;27;19923;-94
2023/01/30 04:33:17;;;;;;;;;;;5.30;99.90;;;;;;5139248;27;20429;-95
2023/01/30 04:35:50;;;;;;;;;;;5.20;99.90;;;;;;5130732;27;19932;-93
2023/01/30 04:38:16;;;;;;;;;;;5.20;99.90;;;;;;5130270;27;19931;-93
2023/01/30 04:40:46;;;;;;;;;;;5.10;99.90;;;;;;5129602;27;19934;-92
2023/01/30 04:43:11;;;;;;;;;;;5.10;99.90;;;;;;5128415;27;19923;-95
2023/01/30 04:45:41;;;;;;;;;;;5.10;99.90;;;;;;5124826;27;19962;-94
2023/01/30 04:48:06;;;;;;;;;;;6.00;99.90;;;;;;5136180;27;20027;-93
2023/01/30 04:50:32;;;;;;;;;;;5.00;99.90;;;;;;5153773;27;20041;-94
2023/01/30 04:52:59;;;;;;;;;;;5.20;99.90;;;;;;5122795;27;19982;-93
2023/01/30 04:55:28;;;;;;;;;;;3.20;99.90;;;;;;5114381;27;19923;-94
2023/01/30 04:57:56;;;;;;;;;;;5.50;99.90;;;;;;5130913;27;19955;-95
2023/01/30 05:00:24;;;;;;;;;;;5.50;99.90;;;;;;5129714;27;19923;-95
2023/01/30 05:02:50;;;;;;;;;;;3.80;99.90;;;;;;5129908;27;19931;-95
2023/01/30 05:05:16;;;;;;;;;;;5.10;99.90;;;;;;5132803;27;20102;-96
2023/01/30 05:07:41;;;;;;;;;;;5.20;99.90;;;;;;5128037;27;19968;-96
2023/01/30 05:10:07;;;;;;;;;;;5.30;99.90;;;;;;5126724;27;19995;-93
2023/01/30 05:12:33;;;;;;;;;;;4.90;99.90;;;;;;5124530;27;19945;-93
2023/01/30 05:15:00;;;;;;;;;;;4.90;99.90;;;;;;5130009;27;19923;-94
2023/01/30 05:17:25;;;;;;;;;;;4.80;99.90;;;;;;5112991;27;19927;-93
2023/01/30 05:19:51;;;;;;;;;;;4.90;99.90;;;;;;5132930;27;19923;-94
2023/01/30 05:22:16;;;;;;;;;;;5.00;99.90;;;;;;5127048;27;19923;-95
2023/01/30 05:24:42;;;;;;;;;;;5.00;99.90;;;;;;5114869;27;19927;-94
2023/01/30 05:27:08;;;;;;;;;;;5.20;99.90;;;;;;5125340;27;19927;-95
2023/01/30 05:29:34;;;;;;;;;;;5.00;99.90;;;;;;5132514;27;19962;-94
2023/01/30 05:31:59;;;;;;;;;;;5.00;99.90;;;;;;5134019;27;19923;-94
2023/01/30 05:34:25;;;;;;;;;;;4.90;99.90;;;;;;5149236;27;19927;-96
2023/01/30 05:36:51;;;;;;;;;;;4.90;99.90;;;;;;5126817;27;19923;-96
2023/01/30 05:39:17;;;;;;;;;;;5.10;99.90;;;;;;5135273;27;20022;-93
2023/01/30 05:41:42;;;;;;;;;;;5.10;99.90;;;;;;5135220;27;19944;-95
2023/01/30 05:44:08;;;;;;;;;;;4.80;99.90;;;;;;5124339;27;20022;-94
2023/01/30 05:46:34;;;;;;;;;;;4.70;99.90;;;;;;5112402;27;20006;-95
2023/01/30 05:48:59;;;;;;;;;;;4.90;99.90;;;;;;5111973;27;19975;-94
2023/01/30 05:51:34;;;;;;;;;;;4.60;99.90;;;;;;5142863;27;20525;-94
2023/01/30 05:54:00;;;;;;;;;;;4.60;99.90;;;;;;5145388;27;20379;-95
2023/01/30 05:56:25;;;;;;;;;;;4.70;99.90;;;;;;5106565;27;19927;-95
2023/01/30 05:58:55;;;;;;;;;;;4.70;99.90;;;;;;5136174;27;19919;-95
2023/01/30 06:01:21;;;;;;;;;;;4.70;99.90;;;;;;5144286;27;19979;-94
2023/01/30 06:03:47;;;;;;;;;;;4.70;99.90;;;;;;5149056;27;19935;-94
2023/01/30 06:06:13;;;;;;;;;;;4.70;99.90;;;;;;5127766;27;19963;-93
2023/01/30 06:08:40;;;;;;;;;;;4.70;99.90;;;;;;5125636;27;19923;-95
2023/01/30 06:11:07;;;;;;;;;;;3.40;99.90;;;;;;5132342;27;19923;-93
2023/01/30 06:13:33;;;;;;;;;;;4.80;99.90;;;;;;5138868;27;19957;-93
2023/01/30 06:15:59;;;;;;;;;;;5.00;99.90;;;;;;5130077;27;19949;-95
2023/01/30 06:18:29;;;;;;;;;;;4.90;99.90;;;;;;5135104;27;19987;-95
2023/01/30 06:20:56;;;;;;;;;;;5.00;99.90;;;;;;5145007;27;19941;-95
2023/01/30 06:23:24;;;;;;;;;;;5.20;99.90;;;;;;5138390;27;19945;-94
2023/01/30 06:25:50;;;;;;;;;;;5.20;99.90;;;;;;5143305;27;19923;-95
2023/01/30 06:28:17;;;;;;;;;;;5.20;99.90;;;;;;5128815;28;19970;-94
2023/01/30 06:30:43;;;;;;;;;;;7.20;99.90;;;;;;5127005;28;19923;-93
2023/01/30 06:33:09;;;;;;;;;;;3.30;99.90;;;;;;5134482;27;19924;-96
2023/01/30 06:35:36;;;;;;;;;;;5.20;99.90;;;;;;5143528;27;19966;-93
2023/01/30 06:38:02;;;;;;;;;;;5.20;99.90;;;;;;5137220;27;19924;-95
2023/01/30 06:40:37;;;;;;;;;;;5.10;99.90;;;;;;5150502;27;19930;-95
2023/01/30 06:43:03;;;;;;;;;;;5.00;99.90;;;;;;5128457;28;20273;-94
2023/01/30 06:45:29;;;;;;;;;;;5.10;99.90;;;;;;5118533;27;19923;-94
2023/01/30 06:47:55;;;;;;;;;;;5.10;99.90;;;;;;5124605;27;19963;-94
2023/01/30 06:50:21;;;;;;;;;;;5.80;99.90;;;;;;5145231;27;19923;-94
2023/01/30 06:52:48;;;;;;;;;;;3.60;99.90;;;;;;5142931;28;19967;-95
2023/01/30 06:55:24;;;;;;;;;;;5.40;99.90;;;;;;5131753;27;19978;-95
2023/01/30 06:57:59;;;;;;;;;;;5.60;99.90;;;;;;5150585;27;19988;-93
2023/01/30 07:00:25;;;;;;;;;;;5.20;99.90;;;;;;5142343;27;19934;-94
2023/01/30 07:02:50;;;;;;;;;;;5.30;99.90;;;;;;5131662;27;19986;-93
2023/01/30 07:05:16;;;;;;;;;;;5.30;99.90;;;;;;5130922;27;19923;-95
2023/01/30 07:07:51;;;;;;;;;;;5.30;99.90;;;;;;5155466;27;19930;-94
2023/01/30 07:10:17;;;;;;;;;;;3.90;99.90;;;;;;5155594;27;19987;-95
2023/01/30 07:12:44;;;;;;;;;;;5.50;99.90;;;;;;5152690;27;19923;-94
2023/01/30 07:15:09;;;;;;;;;;;5.30;99.90;;;;;;5148016;27;19934;-94
2023/01/30 07:17:35;;;;;;;;;;;5.40;99.90;;;;;;5132572;27;19931;-94
2023/01/30 07:20:01;;;;;;;;;;;5.20;99.90;;;;;;5112778;27;19923;-94
2023/01/30 07:22:26;;;;;;;;;;;5.40;99.90;;;;;;5141287;27;20017;-94
2023/01/30 07:24:52;;;;;;;;;;;5.40;99.90;;;;;;5136552;27;19958;-93
2023/01/30 07:27:17;;;;;;;;;;;5.30;99.90;;;;;;5128465;27;19978;-95
2023/01/30 07:29:43;;;;;;;;;;;5.40;99.90;;;;;;5104190;28;19928;-93
2023/01/30 07:32:19;;;;;;;;;;;5.30;99.90;;;;;;5138175;27;19923;-95
2023/01/30 07:34:45;;;;;;;;;;;5.70;99.90;;;;;;5120076;27;19923;-95
2023/01/30 07:37:11;;;;;;;;;;;5.60;99.90;;;;;;5117997;27;20054;-95
2023/01/30 07:39:39;;;;;;;;;;;5.70;99.90;;;;;;5142113;27;19923;-94
2023/01/30 07:42:07;;;;;;;;;;;5.60;99.90;;;;;;5129101;27;20039;-94
2023/01/30 07:44:33;;;;;;;;;;;5.40;99.90;;;;;;5130647;27;19940;-94
2023/01/30 07:47:01;;;;;;;;;;;5.50;99.90;;;;;;5113880;28;19919;-93
2023/01/30 07:49:45;;;;;;;;;;;5.50;99.90;;;;;;5130145;27;19919;-95
2023/01/30 07:52:28;;;;;;;;;;;6.60;99.90;;;;;;5158555;22;20280;-88
2023/01/30 07:54:57;;;;;;;;;;;5.80;99.90;;;;;;5074432;28;19970;-89
2023/01/30 07:57:22;;;;;;;;;;;5.90;99.90;;;;;;5074596;28;19921;-87
2023/01/30 07:59:50;;;;;;;;;;;5.60;99.90;;;;;;5054044;28;19921;-89
2023/01/30 08:02:21;;;;;;;;;;;6.30;99.90;;;;;;5053818;28;19920;-88
2023/01/30 08:04:47;;;;;;;;;;;4.10;99.90;;;;;;5071425;28;19927;-88
2023/01/30 08:07:13;;;;;;;;;;;5.60;99.90;;;;;;5055876;28;20287;-88
2023/01/30 08:09:46;;;;;;;;;;;6.00;99.90;;;;;;5061805;28;20280;-89
2023/01/30 08:12:12;;;;;;;;;;;6.00;99.90;;;;;;5069446;28;20261;-87
2023/01/30 08:14:38;;;;;;;;;;;5.90;99.90;;;;;;5074001;28;19928;-89
2023/01/30 08:17:04;;;;;;;;;;;5.50;99.90;;;;;;5056309;28;19940;-89
2023/01/30 08:19:30;;;;;;;;;;;5.80;99.90;;;;;;5053258;28;19927;-88
2023/01/30 08:22:00;;;;;;;;;;;7.00;99.90;;;;;;5068451;28;20264;-87
2023/01/30 08:24:33;;;;;;;;;;;5.60;99.90;;;;;;5057593;28;19920;-91
2023/01/30 08:27:02;;;;;;;;;;;5.70;99.90;;;;;;5074222;28;20280;-88
2023/01/30 08:29:30;;;;;;;;;;;5.90;99.90;;;;;;5057357;28;19920;-90
2023/01/30 08:31:59;;;;;;;;;;;6.20;99.90;;;;;;5064194;28;19927;-89
2023/01/30 08:37:21;;;;;;;;;;;4.40;99.90;;;;;;5072416;28;20663;-88
2023/01/30 08:39:49;;;;;;;;;;;6.30;99.90;;;;;;5061213;28;19920;-87
2023/01/30 08:42:17;;;;;;;;;;;6.30;99.90;;;;;;5056784;28;19924;-87
2023/01/30 08:44:45;;;;;;;;;;;6.10;99.90;;;;;;5057538;28;19928;-88
2023/01/30 08:47:11;;;;;;;;;;;6.10;99.90;;;;;;5067719;28;20130;-88
2023/01/30 08:49:37;;;;;;;;;;;5.20;99.90;;;;;;5048507;28;20327;-88
2023/01/30 08:52:02;;;;;;;;;;;7.10;99.90;;;;;;5085000;28;20037;-88
2023/01/30 08:54:28;;;;;;;;;;;5.70;99.90;;;;;;5072840;28;19920;-88
2023/01/30 08:57:01;;;;;;;;;;;6.80;99.90;;;;;;5056590;28;19921;-87
2023/01/30 08:59:29;;;;;;;;;;;6.40;99.90;;;;;;5052621;28;19928;-89
2023/01/30 09:01:57;;;;;;;;;;;6.10;99.90;;;;;;5056270;28;19924;-88
2023/01/30 09:04:25;;;;;;;;;;;6.20;99.90;;;;;;5072682;28;19969;-89
2023/01/30 09:06:51;;;;;;;;;;;6.50;99.90;;;;;;5056139;28;20036;-88
2023/01/30 09:09:17;;;;;;;;;;;4.90;99.90;;;;;;5056343;28;20367;-89
2023/01/30 09:11:45;;;;;;;;;;;6.00;99.90;;;;;;5056286;28;19989;-89
2023/01/30 09:14:10;;;;;;;;;;;6.10;99.90;;;;;;5073159;28;20004;-89
2023/01/30 09:16:39;;;;;;;;;;;6.40;99.90;;;;;;5063607;28;19995;-91
2023/01/30 09:19:09;;;;;;;;;;;4.80;99.90;;;;;;5055530;28;19920;-88
2023/01/30 09:21:42;;;;;;;;;;;6.40;99.90;;;;;;5039523;28;20316;-88
2023/01/30 09:24:10;;;;;;;;;;;6.40;99.90;;;;;;5058613;28;19924;-88
2023/01/30 09:26:43;;;;;;;;;;;6.40;99.90;;;;;;5068889;28;20422;-89
2023/01/30 09:29:17;;;;;;;;;;;6.20;99.90;;;;;;5056403;28;19920;-90
2023/01/30 09:31:43;;;;;;;;;;;6.20;99.90;;;;;;5052119;28;19943;-88
2023/01/30 09:34:08;;;;;;;;;;;6.30;99.90;;;;;;5072682;28;19920;-89
2023/01/30 09:36:44;;;;;;;;;;;6.30;99.90;;;;;;5079616;28;20233;-89
2023/01/30 09:39:15;;;;;;;;;;;6.40;99.90;;;;;;5071252;28;19920;-87
2023/01/30 09:42:08;;;;;;;;;;;6.20;99.90;;;;;;5054546;28;19974;-90
2023/01/30 09:44:52;;;;;;;;;;;6.50;99.90;;;;;;5056237;28;19929;-91
2023/01/30 09:50:41;;;;;;;;;;;6.30;99.90;;;;;;5038640;28;19924;-89
2023/01/30 09:53:13;;;;;;;;;;;6.20;99.90;;;;;;5051557;28;19921;-91
2023/01/30 09:55:45;;;;;;;;;;;7.70;99.90;;;;;;5071522;28;19971;-87
2023/01/30 09:58:28;;;;;;;;;;;6.60;99.90;;;;;;5076144;28;20011;-89
2023/01/30 10:00:59;;;;;;;;;;;6.00;99.90;;;;;;5051270;28;20250;-90
2023/01/30 10:03:36;;;;;;;;;;;6.00;99.90;;;;;;5044790;28;19944;-88
2023/01/30 10:06:15;;;;;;;;;;;;;;;;;;;;;
2023/01/30 10:09:10;;;;;;;;;;;5.90;99.90;;;;;;5070728;28;19925;-90
2023/01/30 10:11:52;;;;;;;;;;;;;;;;;;;;;
2023/01/30 10:14:34;;;;;;;;;;;6.60;99.90;;;;;;5072264;28;19920;-89
2023/01/30 10:17:27;;;;;;;;;;;6.90;99.90;;;;;;5055810;28;19970;-88
2023/01/30 10:20:02;;;;;;;;;;;6.60;99.90;;;;;;5043427;28;19931;-87
2023/01/30 10:22:43;;;;;;;;;;;6.50;99.90;;;;;;5046441;28;19928;-89
2023/01/30 10:25:11;;;;;;;;;;;6.60;99.90;;;;;;5055293;28;20337;-88
2023/01/30 10:27:40;;;;;;;;;;;6.80;99.90;;;;;;5048103;28;19920;-88
2023/01/30 10:30:13;;;;;;;;;;;6.70;99.90;;;;;;5067964;28;20315;-88
2023/01/30 10:32:59;;;;;;;;;;;6.70;99.90;;;;;;5059452;28;19920;-89
2023/01/30 10:35:31;;;;;;;;;;;6.50;99.90;;;;;;5059641;28;19921;-89
2023/01/30 10:38:11;;;;;;;;;;;6.30;99.90;;;;;;5065844;28;19963;-88
2023/01/30 10:40:51;;;;;;;;;;;5.90;99.90;;;;;;5074016;28;19927;-89
2023/01/30 10:43:53;;;;;;;;;;;5.70;99.90;;;;;;5074001;28;19927;-87
2023/01/30 10:46:24;;;;;;;;;;;5.50;99.90;;;;;;4962870;28;19925;-89
2023/01/30 10:51:54;;;;;;;;;;;4.00;99.90;;;;;;5058247;28;19920;-89
2023/01/30 10:54:22;;;;;;;;;;;5.00;99.90;;;;;;5060525;28;19996;-90
2023/01/30 10:57:02;;;;;;;;;;;5.00;99.90;;;;;;5058835;28;20391;-91
2023/01/30 11:00:03;;;;;;;;;;;;;;;;;;;;;
2023/01/30 11:02:38;;;;;;;;;;;5.50;99.90;;;;;;5067039;28;19928;-91
2023/01/30 11:05:18;;;;;;;;;;;5.80;99.90;;;;;;5048868;28;20443;-89
2023/01/30 11:07:56;;;;;;;;;;;5.80;99.90;;;;;;5104124;28;19927;-88
2023/01/30 11:10:23;;;;;;;;;;;5.80;99.90;;;;;;5056038;28;19920;-91
2023/01/30 11:12:57;;;;;;;;;;;5.90;99.90;;;;;;5057479;28;19920;-88
2023/01/30 11:15:24;;;;;;;;;;;4.90;99.90;;;;;;5051505;28;19989;-89
2023/01/30 11:18:02;;;;;;;;;;;6.20;99.90;;;;;;5072575;28;20046;-88
2023/01/30 11:20:28;;;;;;;;;;;6.10;99.90;;;;;;5098094;28;19912;-89
2023/01/30 11:23:07;;;;;;;;;;;6.30;99.90;;;;;;5078198;28;19924;-89
2023/01/30 11:25:46;;;;;;;;;;;6.70;99.90;;;;;;5094633;28;19939;-88
2023/01/30 11:28:22;;;;;;;;;;;6.70;99.90;;;;;;5075569;28;20003;-88
2023/01/30 11:30:58;;;;;;;;;;;6.70;99.90;;;;;;5078736;28;20023;-89
2023/01/30 11:33:39;;;;;;;;;;;6.60;99.90;;;;;;5076239;28;20339;-88
2023/01/30 11:36:08;;;;;;;;;;;6.70;99.90;;;;;;5076144;28;19927;-87
2023/01/30 11:38:37;;;;;;;;;;;5.60;99.90;;;;;;5071990;28;20303;-90
2023/01/30 11:41:03;;;;;;;;;;;6.60;99.90;;;;;;5062072;28;19924;-89
2023/01/30 11:43:29;;;;;;;;;;;6.70;99.90;;;;;;5076993;28;19927;-89
2023/01/30 11:45:57;;;;;;;;;;;7.30;99.90;;;;;;5094777;28;20019;-87
2023/01/30 11:48:31;;;;;;;;;;;8.50;99.90;;;;;;5056956;28;19960;-88
2023/01/30 11:51:00;;;;;;;;;;;7.20;99.90;;;;;;5050447;28;19932;-88
2023/01/30 11:53:40;;;;;;;;;;;7.50;99.90;;;;;;5095008;28;19920;-87
2023/01/30 11:56:34;;;;;;;;;;;7.10;99.90;;;;;;5064115;28;19921;-88
2023/01/30 11:59:23;;;;;;;;;;;8.00;99.90;;;;;;5066140;28;19954;-88
2023/01/30 12:01:51;;;;;;;;;;;6.80;99.90;;;;;;5065695;28;19942;-88
2023/01/30 12:04:19;;;;;;;;;;;6.80;99.90;;;;;;5048623;28;20256;-88
2023/01/30 12:06:45;;;;;;;;;;;6.90;99.90;;;;;;5071864;28;19921;-87
2023/01/30 12:09:29;;;;;;;;;;;6.40;99.90;;;;;;5079768;28;19955;-88
2023/01/30 12:11:57;;;;;;;;;;;6.60;99.90;;;;;;5047893;28;19967;-88
2023/01/30 12:14:41;;;;;;;;;;;7.20;99.90;;;;;;5077363;28;19925;-88
2023/01/30 12:17:17;;;;;;;;;;;6.30;99.90;;;;;;5049696;28;19924;-87
2023/01/30 12:20:09;;;;;;;;;;;6.60;99.90;;;;;;5071647;28;19920;-88
2023/01/30 12:22:46;;;;;;;;;;;6.60;99.90;;;;;;5050773;28;19964;-90
2023/01/30 12:25:15;;;;;;;;;;;6.70;99.90;;;;;;5045597;28;19974;-87
2023/01/30 12:27:40;;;;;;;;;;;6.90;99.90;;;;;;5050220;28;19975;-88
2023/01/30 12:30:18;;;;;;;;;;;7.10;99.90;;;;;;5049805;28;19932;-88
2023/01/30 12:32:44;;;;;;;;;;;7.20;99.90;;;;;;5064737;28;19955;-88
2023/01/30 12:35:32;;;;;;;;;;;;;;;;;;;;;
2023/01/30 12:38:40;;;;;;;;;;;7.40;99.90;;;;;;5069632;28;20328;-88
2023/01/30 12:41:42;;;;;;;;;;;7.80;99.90;;;;;;5052367;28;19943;-88
2023/01/30 12:44:13;;;;;;;;;;;7.40;99.90;;;;;;5043492;28;20387;-90
2023/01/30 12:46:57;;;;;;;;;;;7.60;99.90;;;;;;5056634;28;20237;-89
2023/01/30 12:49:41;;;;;;;;;;;7.40;99.90;;;;;;5049537;28;19940;-88
2023/01/30 12:52:31;;;;;;;;;;;7.50;99.90;;;;;;5055961;28;19924;-91
2023/01/30 12:55:13;;;;;;;;;;;7.40;99.90;;;;;;5073408;28;20006;-90
2023/01/30 12:58:02;;;;;;;;;;;7.40;99.90;;;;;;5050817;28;19966;-90
2023/01/30 13:00:27;;;;;;;;;;;6.50;99.90;;;;;;5049367;28;20146;-88
2023/01/30 13:02:54;;;;;;;;;;;7.40;99.90;;;;;;5071698;28;20095;-88
2023/01/30 13:05:36;;;;;;;;;;;;;;;;;;;;;
2023/01/30 13:08:17;;;;;;;;;;;7.40;99.90;;;;;;5078699;28;19927;-88
2023/01/30 13:10:47;;;;;;;;;;;7.50;99.90;;;;;;5066472;28;19920;-88
2023/01/30 13:13:21;;;;;;;;;;;7.70;99.90;;;;;;5045974;28;20298;-88
2023/01/30 13:16:05;;;;;;;;;;;7.80;99.90;;;;;;5056264;28;20007;-89
2023/01/30 13:18:35;;;;;;;;;;;7.80;99.90;;;;;;5055963;28;19947;-88
2023/01/30 13:21:12;;;;;;;;;;;7.90;99.90;;;;;;5053927;28;19933;-91
2023/01/30 13:23:46;;;;;;;;;;;7.70;99.90;;;;;;5052871;28;19920;-89
2023/01/30 13:26:21;;;;;;;;;;;7.80;99.90;;;;;;5047397;28;19921;-89
2023/01/30 13:28:52;;;;;;;;;;;7.80;99.90;;;;;;5056111;28;19947;-89
2023/01/30 13:31:25;;;;;;;;;;;7.90;99.90;;;;;;5054174;28;20079;-89
2023/01/30 13:34:13;;;;;;;;;;;7.50;99.90;;;;;;5055911;28;20015;-88
2023/01/30 13:36:48;;;;;;;;;;;7.60;99.90;;;;;;5060271;28;19920;-88
2023/01/30 13:39:18;;;;;;;;;;;7.50;99.90;;;;;;5063196;28;19931;-88
2023/01/30 13:41:55;;;;;;;;;;;7.50;99.90;;;;;;5072192;28;19925;-89
2023/01/30 13:44:26;;;;;;;;;;;7.80;99.90;;;;;;5056135;28;20387;-88
2023/01/30 13:46:58;;;;;;;;;;;6.20;99.90;;;;;;5055163;28;19921;-91
2023/01/30 13:49:30;;;;;;;;;;;7.50;99.90;;;;;;5039570;28;19946;-89
2023/01/30 13:52:16;;;;;;;;;;;7.50;99.90;;;;;;5054311;28;19921;-88
2023/01/30 13:55:00;;;;;;;;;;;7.40;99.90;;;;;;5051116;28;19920;-89
2023/01/30 13:57:26;;;;;;;;;;;8.80;99.90;;;;;;5057532;28;20335;-90
2023/01/30 13:59:55;;;;;;;;;;;7.30;99.90;;;;;;5050706;28;19939;-89
2023/01/30 14:02:24;;;;;;;;;;;7.30;99.90;;;;;;5043948;28;19920;-88
2023/01/30 14:04:56;;;;;;;;;;;7.10;99.90;;;;;;5073515;28;19920;-88
2023/01/30 14:07:28;;;;;;;;;;;7.20;99.90;;;;;;5054241;28;20375;-88
2023/01/30 14:10:05;;;;;;;;;;;7.30;99.90;;;;;;5044077;28;19924;-90
2023/01/30 14:12:42;;;;;;;;;;;7.10;99.90;;;;;;5071547;28;20271;-89
2023/01/30 14:15:13;;;;;;;;;;;7.00;99.90;;;;;;5088251;28;19926;-88
2023/01/30 14:17:58;;;;;;;;;;;7.00;99.90;;;;;;5061837;28;19921;-91
2023/01/30 14:20:28;;;;;;;;;;;7.00;99.90;;;;;;5049731;28;19924;-89
2023/01/30 14:23:00;;;;;;;;;;;7.00;99.90;;;;;;5064197;28;19925;-90
2023/01/30 14:25:34;;;;;;;;;;;5.60;99.90;;;;;;5055145;28;19928;-89
2023/01/30 14:28:02;;;;;;;;;;;7.10;99.90;;;;;;5071929;28;19921;-89
2023/01/30 14:30:50;;;;;;;;;;;7.00;99.90;;;;;;5055112;28;20020;-89
2023/01/30 14:33:25;;;;;;;;;;;6.90;99.90;;;;;;5064462;28;19968;-88
2023/01/30 14:35:59;;;;;;;;;;;6.90;99.90;;;;;;5068241;28;20433;-89
2023/01/30 14:38:29;;;;;;;;;;;6.70;99.90;;;;;;5044779;28;19921;-88
2023/01/30 14:41:01;;;;;;;;;;;6.90;99.90;;;;;;5061646;28;19967;-89
2023/01/30 14:43:42;;;;;;;;;;;6.80;99.90;;;;;;5045458;28;20019;-87
2023/01/30 14:46:18;;;;;;;;;;;6.80;99.90;;;;;;5066527;28;19959;-89
2023/01/30 14:48:54;;;;;;;;;;;6.90;99.90;;;;;;5066547;28;19959;-89
2023/01/30 14:51:22;;;;;;;;;;;6.90;99.90;;;;;;5044522;28;19920;-89
2023/01/30 14:54:14;;;;;;;;;;;7.00;99.90;;;;;;5052628;28;19921;-88
2023/01/30 14:57:20;;;;;;;;;;;7.10;99.90;;;;;;5066997;28;19920;-88
2023/01/30 14:59:54;;;;;;;;;;;7.00;99.90;;;;;;5062668;28;19955;-88
2023/01/30 15:02:34;;;;;;;;;;;7.00;99.90;;;;;;5071443;28;19967;-88
2023/01/30 15:05:03;;;;;;;;;;;6.80;99.90;;;;;;5054292;28;19960;-87
2023/01/30 15:07:38;;;;;;;;;;;6.70;99.90;;;;;;5053760;28;19924;-89
2023/01/30 15:10:13;;;;;;;;;;;6.90;99.90;;;;;;5054283;28;20299;-87
2023/01/30 15:12:41;;;;;;;;;;;7.30;99.90;;;;;;5054706;28;20003;-89
2023/01/30 15:15:25;;;;;;;;;;;6.80;99.90;;;;;;5067235;28;20005;-87
2023/01/30 15:17:54;;;;;;;;;;;6.60;99.90;;;;;;5048745;28;19924;-89